createdAt,value
2022-10-19T00:02:11.136Z,6.60
2022-10-19T00:04:37.642Z,6.80
2022-10-19T00:07:04.236Z,6.57
2022-10-19T00:09:31.082Z,7.63
2022-10-19T00:11:57.727Z,6.43
2022-10-19T00:14:24.634Z,7.73
2022-10-19T00:16:53.258Z,6.63
2022-10-19T00:19:22.979Z,7.17
2022-10-19T00:24:17.547Z,6.90
2022-10-19T00:26:44.102Z,7.77
2022-10-19T00:29:12.455Z,7.30
2022-10-19T00:31:39.615Z,7.60
2022-10-19T00:34:06.165Z,7.00
2022-10-19T00:36:36.513Z,7.20
2022-10-19T00:39:08.402Z,7.47
2022-10-19T00:41:36.478Z,7.00
2022-10-19T00:44:06.815Z,7.47
2022-10-19T00:46:36.594Z,6.87
2022-10-19T00:49:14.108Z,7.03
2022-10-19T00:51:44.126Z,7.70
2022-10-19T00:54:11.871Z,8.23
2022-10-19T00:56:41.574Z,8.17
2022-10-19T00:59:09.750Z,8.27
2022-10-19T01:01:36.663Z,8.80
2022-10-19T01:04:04.677Z,7.87
2022-10-19T01:06:32.443Z,7.53
2022-10-19T01:08:58.981Z,7.53
2022-10-19T01:11:38.112Z,8.67
2022-10-19T01:14:16.790Z,8.17
2022-10-19T01:16:49.601Z,8.13
2022-10-19T01:19:48.673Z,8.87
2022-10-19T01:22:46.146Z,8.00
2022-10-19T01:25:48.175Z,8.27
2022-10-19T01:28:19.564Z,8.37
2022-10-19T01:30:57.179Z,8.10
2022-10-19T01:33:52.320Z,7.80
2022-10-19T01:36:25.360Z,7.20
2022-10-19T01:39:09.606Z,7.57
2022-10-19T01:41:50.181Z,8.33
2022-10-19T01:44:20.666Z,8.07
2022-10-19T01:46:52.559Z,8.17
2022-10-19T01:49:25.452Z,7.40
2022-10-19T01:54:36.612Z,7.53
2022-10-19T01:57:06.050Z,7.37
2022-10-19T01:59:33.457Z,7.73
2022-10-19T02:02:03.442Z,7.63
2022-10-19T02:04:32.439Z,7.77
2022-10-19T02:06:59.374Z,8.00
2022-10-19T02:09:26.447Z,7.80
2022-10-19T02:11:59.113Z,8.30
2022-10-19T02:14:30.066Z,7.93
2022-10-19T02:17:08.116Z,7.60
2022-10-19T02:19:35.712Z,7.37
2022-10-19T02:22:02.934Z,7.80
2022-10-19T02:24:29.522Z,7.40
2022-10-19T02:26:56.760Z,8.07
2022-10-19T02:29:23.446Z,9.00
2022-10-19T02:31:50.187Z,8.43
2022-10-19T02:34:16.909Z,8.30
2022-10-19T02:36:43.663Z,7.90
2022-10-19T02:39:10.562Z,8.17
2022-10-19T02:41:47.431Z,8.20
2022-10-19T02:44:18.078Z,8.20
2022-10-19T02:46:49.995Z,8.50
2022-10-19T02:49:16.955Z,9.87
2022-10-19T02:52:02.527Z,10.40
2022-10-19T02:54:29.455Z,9.47
2022-10-19T02:56:57.258Z,8.80
2022-10-19T02:59:25.003Z,8.37
2022-10-19T03:01:52.467Z,8.60
2022-10-19T03:04:19.221Z,9.53
2022-10-19T03:06:45.946Z,10.23
2022-10-19T03:09:12.623Z,9.33
2022-10-19T03:11:39.241Z,9.27
2022-10-19T03:14:05.841Z,9.27
2022-10-19T03:16:32.424Z,9.80
2022-10-19T03:18:59.010Z,9.33
2022-10-19T03:21:25.601Z,10.27
2022-10-19T03:23:52.306Z,10.83
2022-10-19T03:26:19.018Z,10.20
2022-10-19T03:28:46.039Z,10.30
2022-10-19T03:31:12.772Z,9.83
2022-10-19T03:33:39.355Z,11.33
2022-10-19T03:36:21.227Z,9.67
2022-10-19T03:38:50.519Z,9.63
2022-10-19T03:41:17.078Z,10.03
2022-10-19T03:43:43.621Z,9.93
2022-10-19T03:46:10.187Z,10.33
2022-10-19T03:48:36.742Z,9.40
2022-10-19T03:51:06.746Z,10.50
2022-10-19T03:53:33.640Z,12.30
2022-10-19T03:56:05.612Z,10.27
2022-10-19T03:58:35.550Z,9.80
2022-10-19T04:01:06.282Z,8.33
2022-10-19T04:03:33.061Z,7.77
2022-10-19T04:06:08.591Z,8.57
2022-10-19T04:08:35.739Z,7.97
2022-10-19T04:11:04.932Z,7.80
2022-10-19T04:13:32.409Z,8.40
2022-10-19T04:16:06.455Z,7.50
2022-10-19T04:18:33.187Z,7.30
2022-10-19T04:21:01.703Z,7.50
2022-10-19T04:23:32.731Z,6.60
2022-10-19T04:26:04.397Z,7.33
2022-10-19T04:28:31.055Z,6.63
2022-10-19T04:31:01.428Z,6.83
2022-10-19T04:33:28.133Z,7.00
2022-10-19T04:36:02.263Z,7.53
2022-10-19T04:38:29.764Z,15.27
2022-10-19T04:40:56.504Z,7.43
2022-10-19T04:43:23.055Z,6.93
2022-10-19T04:45:49.651Z,8.57
2022-10-19T04:48:16.193Z,7.40
2022-10-19T04:50:42.764Z,6.13
2022-10-19T04:53:09.641Z,6.80
2022-10-19T04:55:41.229Z,6.27
2022-10-19T04:58:08.041Z,7.33
2022-10-19T05:00:35.225Z,6.47
2022-10-19T05:03:01.816Z,6.60
2022-10-19T05:05:28.310Z,6.87
2022-10-19T05:07:55.057Z,7.37
2022-10-19T05:10:21.596Z,6.90
2022-10-19T05:12:48.187Z,7.60
2022-10-19T05:15:14.831Z,7.40
2022-10-19T05:17:41.488Z,6.77
2022-10-19T05:20:08.746Z,7.17
2022-10-19T05:22:35.483Z,7.97
2022-10-19T05:25:02.037Z,7.47
2022-10-19T05:27:28.562Z,7.83
2022-10-19T05:29:55.174Z,8.20
2022-10-19T05:32:21.814Z,8.37
2022-10-19T05:34:48.650Z,9.00
2022-10-19T05:37:17.235Z,9.00
2022-10-19T05:39:43.944Z,7.67
2022-10-19T05:42:10.476Z,10.70
2022-10-19T05:47:08.895Z,9.67
2022-10-19T05:49:35.514Z,9.47
2022-10-19T05:52:02.095Z,12.87
2022-10-19T05:54:28.807Z,10.90
2022-10-19T05:56:55.802Z,11.77
2022-10-19T05:59:23.635Z,9.40
2022-10-19T06:01:50.258Z,9.63
2022-10-19T06:06:48.371Z,9.03
2022-10-19T06:09:14.911Z,8.20
2022-10-19T06:11:42.310Z,7.60
2022-10-19T06:14:12.912Z,7.90
2022-10-19T06:16:39.658Z,7.53
2022-10-19T06:19:06.423Z,8.67
2022-10-19T06:21:34.374Z,8.50
2022-10-19T06:24:06.543Z,10.07
2022-10-19T06:26:34.639Z,9.73
2022-10-19T06:29:02.091Z,9.23
2022-10-19T06:31:31.537Z,9.37
2022-10-19T06:33:58.475Z,8.77
2022-10-19T06:36:28.251Z,10.67
2022-10-19T06:38:55.968Z,10.17
2022-10-19T06:41:23.087Z,9.27
2022-10-19T06:43:51.181Z,10.43
2022-10-19T06:46:20.821Z,10.13
2022-10-19T06:48:52.566Z,10.00
2022-10-19T06:51:19.798Z,10.47
2022-10-19T06:53:46.499Z,10.03
2022-10-19T06:56:13.071Z,10.10
2022-10-19T06:58:40.651Z,11.33
2022-10-19T07:01:08.549Z,11.27
2022-10-19T07:03:36.465Z,11.77
2022-10-19T07:06:06.230Z,12.37
2022-10-19T07:08:33.597Z,12.27
2022-10-19T07:11:06.786Z,12.80
2022-10-19T07:13:33.881Z,12.50
2022-10-19T07:16:07.258Z,11.63
2022-10-19T07:18:35.715Z,12.17
2022-10-19T07:21:06.227Z,12.50
2022-10-19T07:23:35.021Z,12.67
2022-10-19T07:26:08.185Z,13.10
2022-10-19T07:28:35.309Z,12.47
2022-10-19T07:31:10.947Z,13.30
2022-10-19T07:33:37.963Z,13.30
2022-10-19T07:36:07.822Z,13.20
2022-10-19T07:38:35.076Z,14.60
2022-10-19T07:41:14.351Z,14.03
2022-10-19T07:43:42.164Z,13.87
2022-10-19T07:46:13.522Z,14.23
2022-10-19T07:48:40.924Z,14.53
2022-10-19T07:51:09.602Z,13.90
2022-10-19T07:53:37.327Z,14.07
2022-10-19T07:56:10.234Z,12.00
2022-10-19T07:58:37.571Z,12.87
2022-10-19T08:01:13.017Z,12.37
2022-10-19T08:06:27.952Z,11.87
2022-10-19T08:08:55.351Z,13.00
2022-10-19T08:11:26.094Z,13.13
2022-10-19T08:13:53.253Z,13.00
2022-10-19T08:16:26.047Z,12.23
2022-10-19T08:18:56.054Z,13.20
2022-10-19T08:21:22.695Z,12.33
2022-10-19T08:23:49.338Z,12.40
2022-10-19T08:26:15.954Z,12.77
2022-10-19T08:28:42.531Z,12.87
2022-10-19T08:31:35.984Z,13.20
2022-10-19T08:34:03.199Z,13.50
2022-10-19T08:36:31.377Z,13.13
2022-10-19T08:38:58.981Z,12.00
2022-10-19T08:41:28.594Z,13.10
2022-10-19T08:44:18.599Z,13.53
2022-10-19T08:46:52.793Z,13.50
2022-10-19T08:49:23.533Z,13.63
2022-10-19T08:51:56.307Z,12.90
2022-10-19T08:54:24.792Z,14.07
2022-10-19T08:57:28.677Z,13.17
2022-10-19T09:00:03.819Z,13.50
2022-10-19T09:03:01.146Z,12.30
2022-10-19T09:05:50.904Z,13.57
2022-10-19T09:08:18.810Z,13.97
2022-10-19T09:10:49.344Z,14.73
2022-10-19T09:13:36.407Z,15.77
2022-10-19T09:16:15.799Z,14.93
2022-10-19T09:18:44.082Z,14.17
2022-10-19T09:21:20.898Z,14.20
2022-10-19T09:24:05.212Z,13.43
2022-10-19T09:26:36.910Z,13.33
2022-10-19T09:29:11.344Z,14.33
2022-10-19T09:31:40.746Z,14.40
2022-10-19T09:34:21.028Z,13.97
2022-10-19T09:36:52.671Z,14.43
2022-10-19T09:39:19.605Z,15.20
2022-10-19T09:41:59.046Z,14.93
2022-10-19T09:44:27.493Z,14.57
2022-10-19T09:47:25.513Z,13.47
2022-10-19T09:50:07.385Z,13.57
2022-10-19T09:52:38.070Z,12.70
2022-10-19T09:55:05.875Z,13.53
2022-10-19T09:57:32.949Z,13.53
2022-10-19T10:00:00.019Z,13.10
2022-10-19T10:02:34.209Z,12.57
2022-10-19T10:05:07.443Z,13.17
2022-10-19T10:07:37.666Z,14.37
2022-10-19T10:10:28.096Z,12.60
2022-10-19T10:12:59.579Z,13.70
2022-10-19T10:15:30.039Z,19.10
2022-10-19T10:17:58.286Z,13.90
2022-10-19T10:20:30.984Z,14.17
2022-10-19T10:23:01.297Z,13.10
2022-10-19T10:25:33.598Z,14.40
2022-10-19T10:28:01.850Z,12.97
2022-10-19T10:30:35.062Z,13.33
2022-10-19T10:33:13.365Z,13.53
2022-10-19T10:35:53.645Z,13.40
2022-10-19T10:38:25.875Z,13.10
2022-10-19T10:41:00.094Z,12.40
2022-10-19T10:43:32.871Z,11.67
2022-10-19T10:46:16.094Z,11.10
2022-10-19T10:48:53.821Z,11.33
2022-10-19T10:51:32.725Z,12.27
2022-10-19T10:54:31.739Z,12.83
2022-10-19T10:57:06.812Z,11.23
2022-10-19T10:59:45.691Z,11.77
2022-10-19T11:02:17.652Z,11.50
2022-10-19T11:04:52.271Z,12.23
2022-10-19T11:07:23.857Z,11.27
2022-10-19T11:09:58.427Z,12.87
2022-10-19T11:12:49.568Z,11.50
2022-10-19T11:15:37.047Z,11.93
2022-10-19T11:18:10.949Z,11.33
2022-10-19T11:20:46.910Z,12.40
2022-10-19T11:23:25.518Z,11.63
2022-10-19T11:26:24.409Z,12.10
2022-10-19T11:29:28.548Z,10.70
2022-10-19T11:31:57.285Z,10.70
2022-10-19T11:34:46.906Z,10.53
2022-10-19T11:37:31.506Z,9.93
2022-10-19T11:40:29.983Z,11.03
2022-10-19T11:43:07.072Z,11.33
2022-10-19T11:46:14.907Z,11.43
2022-10-19T11:48:55.874Z,10.93
2022-10-19T11:51:28.284Z,10.37
2022-10-19T11:54:06.975Z,11.67
2022-10-19T11:57:04.102Z,10.77
2022-10-19T11:59:46.665Z,10.97
2022-10-19T12:02:19.202Z,10.90
2022-10-19T12:05:00.306Z,10.43
2022-10-19T12:07:33.298Z,11.07
2022-10-19T12:10:25.454Z,10.93
2022-10-19T12:12:56.563Z,11.27
2022-10-19T12:15:48.638Z,10.63
2022-10-19T12:18:43.103Z,10.07
2022-10-19T12:21:34.091Z,10.47
2022-10-19T12:24:04.301Z,10.60
2022-10-19T12:26:35.842Z,11.07
2022-10-19T12:29:07.469Z,11.43
2022-10-19T12:31:36.128Z,11.27
2022-10-19T12:34:33.953Z,10.77
2022-10-19T12:37:18.488Z,11.23
2022-10-19T12:39:57.271Z,10.90
2022-10-19T12:42:41.857Z,11.50
2022-10-19T12:45:13.823Z,11.27
2022-10-19T12:47:40.697Z,11.17
2022-10-19T12:50:07.754Z,11.27
2022-10-19T12:52:52.449Z,10.33
2022-10-19T12:55:26.611Z,10.83
2022-10-19T12:58:03.272Z,10.50
2022-10-19T13:00:33.177Z,11.43
2022-10-19T13:03:26.244Z,10.83
2022-10-19T13:05:58.351Z,10.47
2022-10-19T13:08:30.739Z,10.50
2022-10-19T13:11:14.764Z,11.57
2022-10-19T13:13:58.561Z,10.70
2022-10-19T13:16:28.273Z,11.03
2022-10-19T13:19:02.972Z,10.83
2022-10-19T13:22:01.665Z,11.60
2022-10-19T13:24:37.057Z,11.40
2022-10-19T13:27:03.660Z,11.47
2022-10-19T13:29:39.587Z,11.50
2022-10-19T13:32:43.809Z,11.53
2022-10-19T13:35:29.116Z,11.40
2022-10-19T13:38:24.385Z,11.93
2022-10-19T13:40:51.000Z,11.73
2022-10-19T13:43:18.713Z,12.13
2022-10-19T13:46:14.393Z,13.57
2022-10-19T13:49:27.773Z,11.60
2022-10-19T13:52:21.647Z,12.03
2022-10-19T13:55:00.188Z,12.97
2022-10-19T13:58:02.838Z,11.83
2022-10-19T14:00:36.851Z,11.40
2022-10-19T14:03:26.812Z,12.07
2022-10-19T14:06:35.247Z,12.53
2022-10-19T14:09:13.263Z,12.60
2022-10-19T14:11:49.290Z,12.10
2022-10-19T14:14:17.373Z,11.60
2022-10-19T14:16:46.673Z,12.07
2022-10-19T14:19:14.869Z,12.00
2022-10-19T14:21:41.697Z,12.70
2022-10-19T14:24:40.553Z,12.60
2022-10-19T14:27:08.223Z,12.20
2022-10-19T14:29:46.191Z,12.80
2022-10-19T14:32:13.329Z,12.73
2022-10-19T14:34:44.468Z,11.80
2022-10-19T14:37:22.286Z,11.77
2022-10-19T14:40:26.641Z,11.27
2022-10-19T14:42:55.658Z,11.73
2022-10-19T14:45:25.562Z,12.13
2022-10-19T14:47:56.317Z,12.40
2022-10-19T14:50:43.368Z,12.37
2022-10-19T14:53:39.978Z,12.80
2022-10-19T14:56:09.340Z,12.47
2022-10-19T14:58:41.343Z,11.93
2022-10-19T15:01:09.582Z,13.33
2022-10-19T15:03:39.087Z,13.17
2022-10-19T15:06:18.866Z,12.83
2022-10-19T15:08:50.851Z,12.80
2022-10-19T15:11:43.854Z,12.40
2022-10-19T15:14:22.078Z,12.17
2022-10-19T15:17:01.794Z,12.27
2022-10-19T15:19:31.541Z,11.60
2022-10-19T15:22:29.629Z,10.70
2022-10-19T15:24:58.679Z,11.13
2022-10-19T15:27:36.593Z,11.40
2022-10-19T15:30:24.393Z,12.23
2022-10-19T15:33:02.308Z,11.67
2022-10-19T15:35:32.137Z,11.60
2022-10-19T15:38:15.238Z,11.93
2022-10-19T15:40:43.929Z,10.40
2022-10-19T15:43:35.344Z,12.23
2022-10-19T15:46:20.331Z,12.13
2022-10-19T15:48:52.365Z,11.80
2022-10-19T15:51:24.790Z,12.37
2022-10-19T15:53:56.813Z,12.57
2022-10-19T15:56:25.292Z,11.80
2022-10-19T15:58:53.495Z,12.03
2022-10-19T16:01:22.788Z,12.10
2022-10-19T16:03:50.141Z,11.70
2022-10-19T16:06:18.076Z,11.27
2022-10-19T16:08:46.373Z,11.73
2022-10-19T16:11:14.799Z,12.40
2022-10-19T16:13:41.547Z,12.60
2022-10-19T16:16:11.897Z,11.87
2022-10-19T16:18:38.924Z,13.37
2022-10-19T16:21:05.793Z,13.67
2022-10-19T16:23:37.840Z,12.90
2022-10-19T16:26:07.944Z,11.80
2022-10-19T16:28:34.507Z,13.27
2022-10-19T16:31:01.057Z,12.17
2022-10-19T16:33:27.780Z,12.30
2022-10-19T16:35:54.317Z,13.20
2022-10-19T16:38:20.862Z,13.20
2022-10-19T16:40:47.425Z,13.20
2022-10-19T16:43:14.139Z,13.80
2022-10-19T16:45:44.416Z,13.60
2022-10-19T16:48:12.341Z,14.30
2022-10-19T16:50:39.081Z,14.73
2022-10-19T16:53:11.463Z,15.80
2022-10-19T16:55:40.144Z,14.13
2022-10-19T16:58:07.136Z,20.70
2022-10-19T17:00:35.806Z,14.90
2022-10-19T17:03:02.532Z,13.97
2022-10-19T17:05:29.047Z,14.53
2022-10-19T17:07:55.627Z,13.80
2022-10-19T17:10:22.378Z,17.87
2022-10-19T17:12:49.005Z,16.23
2022-10-19T17:15:41.466Z,15.23
2022-10-19T17:18:02.224Z,17.30
2022-10-19T17:20:28.989Z,15.90
2022-10-19T17:22:55.536Z,19.67
2022-10-19T17:25:22.092Z,17.40
2022-10-19T17:27:52.376Z,17.60
2022-10-19T17:30:19.423Z,17.00
2022-10-19T17:32:46.218Z,16.97
2022-10-19T17:35:12.776Z,17.63
2022-10-19T17:37:39.295Z,19.93
2022-10-19T17:40:06.685Z,19.70
2022-10-19T17:42:36.499Z,23.63
2022-10-19T17:45:03.346Z,20.70
2022-10-19T17:47:30.583Z,19.70
2022-10-19T17:49:57.115Z,17.03
2022-10-19T17:52:23.636Z,16.53
2022-10-19T17:58:13.693Z,14.30
2022-10-19T18:00:40.202Z,13.83
2022-10-19T18:03:06.806Z,13.80
2022-10-19T18:05:33.647Z,13.37
2022-10-19T18:08:00.213Z,13.13
2022-10-19T18:10:26.755Z,12.90
2022-10-19T18:12:53.390Z,13.30
2022-10-19T18:15:19.984Z,12.83
2022-10-19T18:17:46.519Z,15.67
2022-10-19T18:20:13.216Z,15.00
2022-10-19T18:22:39.854Z,16.00
2022-10-19T18:28:54.617Z,15.70
2022-10-19T18:31:23.902Z,16.17
2022-10-19T18:33:56.659Z,16.20
2022-10-19T18:36:23.759Z,16.40
2022-10-19T18:38:54.935Z,15.50
2022-10-19T18:41:22.453Z,15.90
2022-10-19T18:47:31.078Z,15.40
2022-10-19T18:49:57.674Z,16.23
2022-10-19T18:52:24.187Z,16.17
2022-10-19T18:54:50.774Z,15.43
2022-10-19T18:57:17.352Z,15.40
2022-10-19T18:59:43.919Z,15.60
2022-10-19T19:02:17.249Z,15.13
2022-10-19T19:04:49.435Z,14.07
2022-10-19T19:07:16.067Z,13.67
2022-10-19T19:09:43.362Z,15.47
2022-10-19T19:12:09.900Z,15.63
2022-10-19T19:14:38.306Z,14.47
2022-10-19T19:17:04.900Z,14.57
2022-10-19T19:19:31.411Z,16.80
2022-10-19T19:21:58.293Z,15.63
2022-10-19T19:24:28.232Z,18.57
2022-10-19T19:26:54.901Z,16.70
2022-10-19T19:29:22.434Z,15.53
2022-10-19T19:31:49.449Z,16.53
2022-10-19T19:34:16.115Z,15.53
2022-10-19T19:36:47.733Z,14.93
2022-10-19T19:39:16.958Z,15.50
2022-10-19T19:41:43.559Z,17.97
2022-10-19T19:44:10.296Z,14.97
2022-10-19T19:46:37.885Z,15.13
2022-10-19T19:49:05.332Z,13.70
2022-10-19T19:51:33.313Z,13.63
2022-10-19T19:53:59.991Z,14.00
2022-10-19T19:56:27.223Z,13.57
2022-10-19T19:58:58.865Z,12.83
2022-10-19T20:01:26.505Z,13.97
2022-10-19T20:03:53.161Z,12.83
2022-10-19T20:06:23.506Z,13.37
2022-10-19T20:08:52.751Z,12.70
2022-10-19T20:11:19.461Z,13.47
2022-10-19T20:13:46.307Z,12.93
2022-10-19T20:16:18.972Z,14.03
2022-10-19T20:18:47.975Z,13.17
2022-10-19T20:21:15.646Z,12.33
2022-10-19T20:23:47.003Z,12.67
2022-10-19T20:26:18.445Z,11.33
2022-10-19T20:28:45.298Z,12.20
2022-10-19T20:31:12.619Z,12.13
2022-10-19T20:33:41.575Z,11.27
2022-10-19T20:36:20.473Z,11.93
2022-10-19T20:38:54.955Z,12.23
2022-10-19T20:41:23.598Z,13.47
2022-10-19T20:43:50.642Z,13.87
2022-10-19T20:46:22.307Z,14.97
2022-10-19T20:48:49.339Z,12.17
2022-10-19T20:51:20.105Z,12.87
2022-10-19T20:53:50.205Z,12.70
2022-10-19T20:56:28.222Z,12.43
2022-10-19T20:58:56.627Z,12.73
2022-10-19T21:01:23.437Z,13.27
2022-10-19T21:03:55.401Z,12.67
2022-10-19T21:06:24.593Z,13.03
2022-10-19T21:08:51.445Z,12.43
2022-10-19T21:11:20.616Z,12.07
2022-10-19T21:13:48.072Z,12.57
2022-10-19T21:16:17.421Z,12.30
2022-10-19T21:18:45.453Z,11.83
2022-10-19T21:21:21.152Z,10.80
2022-10-19T21:23:50.044Z,11.20
2022-10-19T21:26:17.608Z,12.13
2022-10-19T21:28:49.027Z,11.73
2022-10-19T21:31:17.387Z,11.23
2022-10-19T21:33:44.609Z,12.00
2022-10-19T21:36:13.216Z,11.70
2022-10-19T21:38:39.772Z,12.73
2022-10-19T21:41:08.885Z,10.80
2022-10-19T21:43:35.787Z,11.50
2022-10-19T21:46:04.048Z,11.60
2022-10-19T21:48:31.713Z,11.73
2022-10-19T21:50:58.581Z,12.23
2022-10-19T21:53:25.199Z,11.93
2022-10-19T21:55:53.473Z,11.20
2022-10-19T21:58:23.539Z,12.30
2022-10-19T22:00:50.142Z,11.93
2022-10-19T22:03:18.537Z,12.80
2022-10-19T22:05:52.542Z,10.77
2022-10-19T22:08:19.187Z,12.50
2022-10-19T22:10:45.725Z,12.77
2022-10-19T22:13:12.431Z,11.70
2022-10-19T22:15:43.797Z,13.03
2022-10-19T22:18:10.598Z,12.43
2022-10-19T22:20:38.965Z,13.20
2022-10-19T22:23:07.531Z,13.20
2022-10-19T22:25:35.243Z,13.27
2022-10-19T22:28:02.503Z,13.27
2022-10-19T22:30:29.217Z,13.20
2022-10-19T22:32:56.011Z,14.03
2022-10-19T22:35:22.744Z,13.90
2022-10-19T22:37:49.287Z,13.53
2022-10-19T22:40:15.797Z,14.53
2022-10-19T22:42:42.379Z,13.60
2022-10-19T22:45:09.212Z,13.47
2022-10-19T22:47:35.812Z,13.50
2022-10-19T22:50:02.610Z,13.60
2022-10-19T22:52:29.230Z,13.67
2022-10-19T22:54:55.803Z,13.43
2022-10-19T22:57:22.393Z,13.23
2022-10-19T22:59:48.973Z,13.53
2022-10-19T23:02:15.623Z,14.70
2022-10-19T23:04:42.538Z,13.20
2022-10-19T23:07:09.125Z,13.03
2022-10-19T23:09:35.710Z,14.07
2022-10-19T23:12:02.500Z,14.37
2022-10-19T23:14:29.091Z,12.97
2022-10-19T23:16:55.697Z,14.50
2022-10-19T23:19:22.535Z,15.37
2022-10-19T23:21:49.240Z,13.17
2022-10-19T23:24:15.768Z,14.07
2022-10-19T23:26:42.668Z,13.60
2022-10-19T23:29:10.507Z,13.60
2022-10-19T23:31:37.142Z,14.60
2022-10-19T23:34:03.788Z,14.33
2022-10-19T23:36:30.319Z,14.00
2022-10-19T23:38:57.907Z,15.20
2022-10-19T23:41:24.832Z,19.50
2022-10-19T23:43:51.582Z,18.00
2022-10-19T23:46:18.319Z,20.03
2022-10-19T23:48:45.026Z,17.70
2022-10-19T23:51:14.695Z,18.23
2022-10-19T23:53:43.356Z,18.03
2022-10-19T23:56:25.668Z,20.03
2022-10-19T23:58:53.233Z,18.63
